Time;durP1;ratioP1;P1;durP2;ratioP2;P2;SDS_P1;SDS_P2;PMS_P1;PMS_P2;Temp;Humidity;BMP_temperature;BMP_pressure;BME280_temperature;BME280_humidity;BME280_pressure;Samples;Min_cycle;Max_cycle;Signal;HPM_P1;HPM_P2
2021/05/10 00:00:47;;;;;;;1.77;1.30;;;;;;;;;;4941969;28;20070;-84
2021/05/10 00:03:13;;;;;;;2.05;1.30;;;;;;;;;;4930509;28;20059;-82
2021/05/10 00:05:40;;;;;;;2.67;1.27;;;;;;;;;;4928571;28;20945;-82
2021/05/10 00:08:07;;;;;;;2.13;1.40;;;;;;;;;;4916939;28;20091;-82
2021/05/10 00:10:34;;;;;;;3.55;1.27;;;;;;;;;;4945953;28;20063;-83
2021/05/10 00:13:02;;;;;;;1.42;1.08;;;;;;;;;;4915348;28;20190;-82
2021/05/10 00:15:28;;;;;;;1.75;1.25;;;;;;;;;;4932172;28;20066;-82
2021/05/10 00:18:04;;;;;;;1.70;1.20;;;;;;;;;;4923231;28;20114;-80
2021/05/10 00:20:31;;;;;;;2.10;1.48;;;;;;;;;;4928802;28;20471;-80
2021/05/10 00:22:58;;;;;;;2.05;1.20;;;;;;;;;;4926338;28;20067;-80
2021/05/10 00:25:25;;;;;;;2.38;1.33;;;;;;;;;;4920629;28;20124;-81
2021/05/10 00:27:51;;;;;;;2.80;1.38;;;;;;;;;;4926977;28;20050;-81
2021/05/10 00:30:18;;;;;;;1.90;1.30;;;;;;;;;;4920663;28;20064;-81
2021/05/10 00:32:44;;;;;;;1.90;1.20;;;;;;;;;;4921755;28;20078;-80
2021/05/10 00:35:11;;;;;;;1.73;1.30;;;;;;;;;;4923308;28;20051;-81
2021/05/10 00:37:38;;;;;;;2.17;1.35;;;;;;;;;;4939262;28;20063;-81
2021/05/10 00:40:08;;;;;;;1.70;1.40;;;;;;;;;;4915259;28;20059;-81
2021/05/10 00:42:34;;;;;;;1.98;1.45;;;;;;;;;;4917831;28;20480;-81
2021/05/10 00:45:01;;;;;;;1.60;1.02;;;;;;;;;;4914432;28;20064;-81
2021/05/10 00:47:27;;;;;;;2.20;1.45;;;;;;;;;;4940765;28;20075;-82
2021/05/10 00:49:54;;;;;;;1.92;1.30;;;;;;;;;;4937851;28;20453;-81
2021/05/10 00:52:20;;;;;;;2.95;1.40;;;;;;;;;;4918254;28;20060;-81
2021/05/10 00:54:47;;;;;;;1.75;1.23;;;;;;;;;;4924114;28;20066;-81
2021/05/10 00:57:13;;;;;;;2.58;1.40;;;;;;;;;;4928238;28;20083;-82
2021/05/10 00:59:40;;;;;;;2.03;1.20;;;;;;;;;;4924861;28;20063;-82
2021/05/10 01:02:07;;;;;;;3.22;1.40;;;;;;;;;;4937302;28;20096;-82
2021/05/10 01:04:34;;;;;;;2.65;1.45;;;;;;;;;;4934245;28;20059;-81
2021/05/10 01:07:00;;;;;;;2.03;1.40;;;;;;;;;;4936849;28;20142;-80
2021/05/10 01:09:27;;;;;;;1.83;1.10;;;;;;;;;;4926629;28;20144;-80
2021/05/10 01:11:53;;;;;;;2.17;1.20;;;;;;;;;;4912327;28;20456;-79
2021/05/10 01:14:20;;;;;;;2.00;1.38;;;;;;;;;;4919905;28;20059;-80
2021/05/10 01:16:46;;;;;;;2.00;1.23;;;;;;;;;;4918434;28;20059;-79
2021/05/10 01:19:14;;;;;;;2.15;1.15;;;;;;;;;;4919688;28;20055;-80
2021/05/10 01:21:41;;;;;;;1.70;1.20;;;;;;;;;;4939360;28;20134;-82
2021/05/10 01:24:07;;;;;;;1.40;1.20;;;;;;;;;;4921332;28;20075;-82
2021/05/10 01:26:36;;;;;;;1.85;1.38;;;;;;;;;;4921655;28;20060;-82
2021/05/10 01:29:02;;;;;;;1.98;1.30;;;;;;;;;;4921529;28;20074;-82
2021/05/10 01:31:29;;;;;;;2.20;1.40;;;;;;;;;;4933095;28;20123;-81
2021/05/10 01:33:55;;;;;;;2.63;1.20;;;;;;;;;;4933312;28;20047;-82
2021/05/10 01:36:22;;;;;;;1.88;1.25;;;;;;;;;;4929517;28;20064;-79
2021/05/10 01:38:48;;;;;;;3.33;1.40;;;;;;;;;;4927864;28;20055;-79
2021/05/10 01:41:15;;;;;;;1.70;1.23;;;;;;;;;;4934882;28;20056;-80
2021/05/10 01:43:41;;;;;;;1.65;1.30;;;;;;;;;;4926522;28;20063;-80
2021/05/10 01:46:07;;;;;;;1.67;1.20;;;;;;;;;;4918096;28;20117;-80
2021/05/10 01:48:34;;;;;;;3.10;1.45;;;;;;;;;;4931652;28;20182;-81
2021/05/10 01:51:00;;;;;;;2.33;1.30;;;;;;;;;;4926957;28;20554;-81
2021/05/10 01:53:27;;;;;;;1.92;1.40;;;;;;;;;;4926307;28;20071;-82
2021/05/10 01:55:53;;;;;;;2.40;1.48;;;;;;;;;;4923269;28;20063;-81
2021/05/10 01:58:19;;;;;;;2.13;1.33;;;;;;;;;;4919107;28;20083;-82
2021/05/10 02:00:48;;;;;;;1.85;1.33;;;;;;;;;;4924573;28;20074;-80
2021/05/10 02:03:18;;;;;;;2.05;1.52;;;;;;;;;;4931252;28;20133;-81
2021/05/10 02:05:45;;;;;;;2.05;1.50;;;;;;;;;;4920277;28;20162;-82
2021/05/10 02:08:12;;;;;;;2.58;1.27;;;;;;;;;;4943377;28;20066;-81
2021/05/10 02:10:40;;;;;;;2.10;1.33;;;;;;;;;;4925380;28;20068;-82
2021/05/10 02:13:08;;;;;;;2.70;1.50;;;;;;;;;;4926906;28;20079;-82
2021/05/10 02:15:36;;;;;;;2.05;1.35;;;;;;;;;;4927316;28;20478;-83
2021/05/10 02:18:03;;;;;;;1.75;1.17;;;;;;;;;;4926445;28;20083;-81
2021/05/10 02:20:31;;;;;;;2.00;1.50;;;;;;;;;;4913196;28;20088;-81
2021/05/10 02:23:01;;;;;;;1.73;1.23;;;;;;;;;;4924859;28;20158;-81
2021/05/10 02:25:29;;;;;;;2.17;1.60;;;;;;;;;;4935516;28;20063;-80
2021/05/10 02:27:55;;;;;;;1.67;1.23;;;;;;;;;;4919976;28;20066;-81
2021/05/10 02:30:23;;;;;;;2.53;1.40;;;;;;;;;;4918893;28;20064;-81
2021/05/10 02:32:49;;;;;;;2.20;1.55;;;;;;;;;;4923108;28;20098;-80
2021/05/10 02:35:16;;;;;;;2.10;1.42;;;;;;;;;;4940392;28;20059;-80
2021/05/10 02:37:42;;;;;;;2.15;1.50;;;;;;;;;;4919590;28;20613;-81
2021/05/10 02:40:09;;;;;;;2.97;1.40;;;;;;;;;;4923371;28;21354;-81
2021/05/10 02:42:36;;;;;;;2.00;1.50;;;;;;;;;;4948748;28;20083;-81
2021/05/10 02:45:03;;;;;;;2.13;1.38;;;;;;;;;;4939011;28;20143;-82
2021/05/10 02:47:29;;;;;;;2.97;1.50;;;;;;;;;;4946321;28;20063;-80
2021/05/10 02:49:56;;;;;;;4.53;1.42;;;;;;;;;;4929363;28;20063;-82
2021/05/10 02:52:22;;;;;;;2.33;1.50;;;;;;;;;;4919440;28;20610;-81
2021/05/10 02:54:49;;;;;;;2.75;1.55;;;;;;;;;;4924488;28;20489;-80
2021/05/10 02:57:16;;;;;;;2.90;1.40;;;;;;;;;;4934643;28;20068;-81
2021/05/10 02:59:45;;;;;;;3.05;1.52;;;;;;;;;;4921769;28;20084;-80
2021/05/10 03:02:12;;;;;;;2.38;1.73;;;;;;;;;;4916702;28;20051;-80
2021/05/10 03:04:38;;;;;;;2.03;1.40;;;;;;;;;;4925123;28;20465;-81
2021/05/10 03:07:05;;;;;;;2.17;1.52;;;;;;;;;;4930410;28;20059;-81
2021/05/10 03:09:34;;;;;;;2.35;1.30;;;;;;;;;;4917272;28;20084;-80
2021/05/10 03:12:00;;;;;;;2.00;1.45;;;;;;;;;;4935815;28;20072;-82
2021/05/10 03:14:27;;;;;;;2.60;1.52;;;;;;;;;;4920005;28;20071;-82
2021/05/10 03:16:53;;;;;;;2.90;1.60;;;;;;;;;;4930462;28;20052;-82
2021/05/10 03:19:20;;;;;;;1.95;1.42;;;;;;;;;;4926602;28;20060;-82
2021/05/10 03:21:46;;;;;;;2.63;1.55;;;;;;;;;;4934896;28;20055;-81
2021/05/10 03:24:13;;;;;;;2.47;1.60;;;;;;;;;;4923592;28;20060;-82
2021/05/10 03:26:40;;;;;;;2.78;1.58;;;;;;;;;;4932545;28;20171;-81
2021/05/10 03:29:07;;;;;;;2.75;1.60;;;;;;;;;;4924167;28;20070;-83
2021/05/10 03:31:34;;;;;;;1.65;1.20;;;;;;;;;;4935469;28;20582;-82
2021/05/10 03:34:01;;;;;;;1.88;1.33;;;;;;;;;;4921539;28;20044;-82
2021/05/10 03:36:28;;;;;;;2.25;1.60;;;;;;;;;;4934831;28;20739;-82
2021/05/10 03:38:55;;;;;;;2.10;1.45;;;;;;;;;;4932019;28;20448;-82
2021/05/10 03:41:22;;;;;;;2.50;1.70;;;;;;;;;;4919781;28;20067;-83
2021/05/10 03:43:49;;;;;;;3.97;1.80;;;;;;;;;;4929690;28;20118;-83
2021/05/10 03:46:16;;;;;;;2.70;1.60;;;;;;;;;;4934179;28;20071;-83
2021/05/10 03:48:45;;;;;;;2.10;1.50;;;;;;;;;;4913857;28;20068;-84
2021/05/10 03:51:11;;;;;;;2.55;1.40;;;;;;;;;;4916708;28;20051;-83
2021/05/10 03:53:38;;;;;;;2.97;1.50;;;;;;;;;;4936129;28;20656;-82
2021/05/10 03:56:04;;;;;;;2.17;1.40;;;;;;;;;;4930452;28;20070;-82
2021/05/10 03:58:31;;;;;;;3.33;1.50;;;;;;;;;;4910815;28;20047;-82
2021/05/10 04:00:57;;;;;;;2.33;1.48;;;;;;;;;;4915515;28;20476;-82
2021/05/10 04:03:29;;;;;;;2.75;1.50;;;;;;;;;;4933795;28;20084;-81
2021/05/10 04:06:24;;;;;;;2.28;1.63;;;;;;;;;;4916767;28;20068;-84
2021/05/10 04:14:00;;;;;;;2.05;1.40;;;;;;;;;;4922397;28;20157;-84
2021/05/10 04:16:28;;;;;;;2.50;1.50;;;;;;;;;;4914211;28;20095;-84
2021/05/10 04:18:54;;;;;;;2.33;1.50;;;;;;;;;;4922934;28;20051;-86
2021/05/10 04:21:21;;;;;;;2.58;1.80;;;;;;;;;;4921428;28;20852;-83
2021/05/10 04:23:47;;;;;;;3.20;1.55;;;;;;;;;;4914675;28;20087;-83
2021/05/10 04:26:14;;;;;;;2.33;1.58;;;;;;;;;;4925666;28;20074;-84
2021/05/10 04:28:41;;;;;;;2.05;1.40;;;;;;;;;;4919426;28;20083;-83
2021/05/10 04:31:08;;;;;;;2.40;1.77;;;;;;;;;;4928283;28;20135;-81
2021/05/10 04:33:34;;;;;;;3.05;1.75;;;;;;;;;;4920798;28;20071;-82
2021/05/10 04:36:01;;;;;;;3.38;1.50;;;;;;;;;;4912861;28;20830;-86
2021/05/10 04:38:28;;;;;;;3.63;1.75;;;;;;;;;;4921063;28;20076;-84
2021/05/10 04:40:55;;;;;;;3.50;1.50;;;;;;;;;;4936824;28;20063;-83
2021/05/10 04:43:22;;;;;;;1.85;1.35;;;;;;;;;;4923562;28;20071;-82
2021/05/10 04:45:48;;;;;;;2.40;1.75;;;;;;;;;;4919173;28;20067;-84
2021/05/10 04:48:14;;;;;;;1.92;1.50;;;;;;;;;;4909042;28;20059;-82
2021/05/10 04:50:41;;;;;;;5.90;1.85;;;;;;;;;;4943952;28;20111;-84
2021/05/10 04:53:10;;;;;;;3.33;1.60;;;;;;;;;;4924624;28;20066;-84
2021/05/10 04:55:36;;;;;;;3.85;1.58;;;;;;;;;;4921377;28;20095;-83
2021/05/10 04:58:03;;;;;;;2.60;1.80;;;;;;;;;;4914411;28;20126;-83
2021/05/10 05:00:29;;;;;;;3.42;1.60;;;;;;;;;;4916161;28;20438;-84
2021/05/10 05:02:55;;;;;;;2.70;1.60;;;;;;;;;;4921024;28;20063;-83
2021/05/10 05:05:22;;;;;;;2.47;1.55;;;;;;;;;;4938047;28;20126;-84
2021/05/10 05:07:48;;;;;;;2.42;1.50;;;;;;;;;;4917106;28;20544;-84
2021/05/10 05:10:15;;;;;;;2.72;1.77;;;;;;;;;;4913621;29;20074;-84
2021/05/10 05:12:42;;;;;;;2.67;1.60;;;;;;;;;;4940425;28;20059;-84
2021/05/10 05:15:09;;;;;;;4.03;1.50;;;;;;;;;;4918163;28;20093;-84
2021/05/10 05:17:36;;;;;;;2.70;1.70;;;;;;;;;;4929442;28;20051;-84
2021/05/10 05:20:07;;;;;;;2.78;1.67;;;;;;;;;;4924709;28;20063;-83
2021/05/10 05:22:33;;;;;;;2.22;1.60;;;;;;;;;;4932213;28;20055;-84
2021/05/10 05:25:06;;;;;;;4.20;1.83;;;;;;;;;;4942645;28;20067;-84
2021/05/10 05:27:32;;;;;;;3.10;1.70;;;;;;;;;;4923517;28;20601;-84
2021/05/10 05:29:59;;;;;;;2.65;1.50;;;;;;;;;;4935060;28;20060;-84
2021/05/10 05:32:25;;;;;;;2.72;1.80;;;;;;;;;;4918534;28;20126;-83
2021/05/10 05:34:52;;;;;;;2.22;1.60;;;;;;;;;;4917850;28;20040;-83
2021/05/10 05:37:19;;;;;;;2.88;1.70;;;;;;;;;;4924790;28;20070;-83
2021/05/10 05:39:45;;;;;;;2.10;1.60;;;;;;;;;;4914008;28;20099;-82
2021/05/10 05:42:12;;;;;;;2.65;1.60;;;;;;;;;;4925732;28;20035;-83
2021/05/10 05:44:42;;;;;;;3.10;1.70;;;;;;;;;;4933300;28;20533;-84
2021/05/10 05:47:15;;;;;;;2.70;1.63;;;;;;;;;;4933912;28;20091;-83
2021/05/10 05:49:41;;;;;;;2.88;1.70;;;;;;;;;;4916075;28;20143;-83
2021/05/10 05:52:08;;;;;;;2.53;1.50;;;;;;;;;;4937152;28;20111;-82
2021/05/10 05:54:35;;;;;;;2.63;1.60;;;;;;;;;;4921053;28;20048;-82
2021/05/10 05:57:01;;;;;;;2.40;1.60;;;;;;;;;;4930616;28;20066;-83
2021/05/10 05:59:27;;;;;;;2.17;1.50;;;;;;;;;;4931502;28;20102;-82
2021/05/10 06:01:54;;;;;;;2.13;1.52;;;;;;;;;;4938678;28;20088;-81
2021/05/10 06:04:20;;;;;;;3.08;1.90;;;;;;;;;;4934120;28;20111;-82
2021/05/10 06:06:47;;;;;;;2.72;1.70;;;;;;;;;;4934484;28;20071;-82
2021/05/10 06:09:13;;;;;;;3.38;1.63;;;;;;;;;;4916744;28;20056;-82
2021/05/10 06:11:40;;;;;;;2.78;1.80;;;;;;;;;;4933731;28;20047;-82
2021/05/10 06:14:06;;;;;;;1.98;1.50;;;;;;;;;;4944003;28;20107;-82
2021/05/10 06:16:33;;;;;;;2.63;1.90;;;;;;;;;;4946193;28;20126;-82
2021/05/10 06:18:59;;;;;;;2.80;1.85;;;;;;;;;;4923383;28;20150;-84
2021/05/10 06:21:26;;;;;;;2.45;1.65;;;;;;;;;;4931532;28;20543;-84
2021/05/10 06:23:53;;;;;;;2.40;1.75;;;;;;;;;;4932721;28;20043;-85
2021/05/10 06:26:19;;;;;;;2.15;1.45;;;;;;;;;;4931083;28;20123;-82
2021/05/10 06:28:46;;;;;;;3.10;1.83;;;;;;;;;;4928080;28;20083;-74
2021/05/10 06:31:12;;;;;;;4.32;1.52;;;;;;;;;;4934309;28;20059;-75
2021/05/10 06:33:39;;;;;;;3.95;1.80;;;;;;;;;;4903267;28;20130;-75
2021/05/10 06:36:06;;;;;;;2.75;1.70;;;;;;;;;;4909170;28;20111;-76
2021/05/10 06:38:33;;;;;;;3.20;1.60;;;;;;;;;;4929252;28;20074;-75
2021/05/10 06:41:00;;;;;;;4.32;1.75;;;;;;;;;;4922697;28;20614;-74
2021/05/10 06:43:26;;;;;;;2.55;1.67;;;;;;;;;;4940577;28;20650;-73
2021/05/10 06:45:53;;;;;;;2.95;1.60;;;;;;;;;;4920630;28;20067;-75
2021/05/10 06:48:29;;;;;;;2.28;1.58;;;;;;;;;;4915268;28;20122;-75
2021/05/10 06:50:59;;;;;;;2.50;1.80;;;;;;;;;;4911831;28;20619;-75
2021/05/10 06:53:26;;;;;;;2.90;1.80;;;;;;;;;;4932018;28;20072;-74
2021/05/10 06:55:53;;;;;;;2.10;1.52;;;;;;;;;;4916007;28;20158;-74
2021/05/10 06:58:19;;;;;;;2.17;1.58;;;;;;;;;;4921204;28;20072;-74
2021/05/10 07:00:47;;;;;;;3.25;1.58;;;;;;;;;;4920131;28;20468;-75
2021/05/10 07:03:13;;;;;;;3.13;1.70;;;;;;;;;;4923973;28;20159;-75
2021/05/10 07:05:40;;;;;;;2.63;1.52;;;;;;;;;;4922397;28;20088;-75
2021/05/10 07:08:10;;;;;;;2.38;1.65;;;;;;;;;;4919212;28;20180;-74
2021/05/10 07:10:37;;;;;;;2.22;1.63;;;;;;;;;;4933936;28;20785;-74
2021/05/10 07:13:04;;;;;;;3.33;1.70;;;;;;;;;;4915816;28;20063;-75
2021/05/10 07:15:31;;;;;;;2.70;1.77;;;;;;;;;;4920797;28;20079;-74
2021/05/10 07:18:13;;;;;;;2.22;1.40;;;;;;;;;;4913774;28;20096;-74
2021/05/10 07:20:41;;;;;;;2.72;1.90;;;;;;;;;;4922436;28;20063;-75
2021/05/10 07:23:07;;;;;;;2.40;1.65;;;;;;;;;;4925344;28;20140;-75
2021/05/10 07:25:34;;;;;;;1.85;1.48;;;;;;;;;;4926524;28;20852;-75
2021/05/10 07:28:02;;;;;;;3.80;1.70;;;;;;;;;;4932183;28;20440;-75
2021/05/10 07:30:28;;;;;;;4.13;1.70;;;;;;;;;;4936658;28;20074;-75
2021/05/10 07:32:55;;;;;;;2.28;1.48;;;;;;;;;;4923673;28;20071;-75
2021/05/10 07:35:21;;;;;;;2.20;1.50;;;;;;;;;;4917501;28;20040;-73
2021/05/10 07:37:48;;;;;;;3.05;1.70;;;;;;;;;;4919831;28;20570;-76
2021/05/10 07:40:19;;;;;;;2.40;1.60;;;;;;;;;;4920208;28;20051;-76
2021/05/10 07:42:45;;;;;;;3.90;1.60;;;;;;;;;;4918202;28;20064;-76
2021/05/10 07:45:12;;;;;;;1.90;1.33;;;;;;;;;;4919652;28;20130;-75
2021/05/10 07:47:38;;;;;;;2.55;1.45;;;;;;;;;;4914277;28;20067;-74
2021/05/10 07:50:05;;;;;;;2.10;1.40;;;;;;;;;;4928322;28;20064;-75
2021/05/10 07:52:31;;;;;;;6.28;1.98;;;;;;;;;;4922942;28;20075;-75
2021/05/10 07:54:58;;;;;;;2.25;1.63;;;;;;;;;;4911379;28;20070;-75
2021/05/10 07:57:25;;;;;;;2.28;1.52;;;;;;;;;;4916286;28;20516;-75
2021/05/10 07:59:52;;;;;;;1.80;1.35;;;;;;;;;;4917397;28;20126;-75
2021/05/10 08:02:25;;;;;;;3.13;1.58;;;;;;;;;;4913777;28;20064;-75
2021/05/10 08:04:52;;;;;;;2.58;1.60;;;;;;;;;;4931894;28;20059;-76
2021/05/10 08:07:19;;;;;;;2.92;1.70;;;;;;;;;;4919443;28;20563;-75
2021/05/10 08:09:45;;;;;;;2.85;1.30;;;;;;;;;;4911871;28;20040;-76
2021/05/10 08:12:13;;;;;;;1.63;1.30;;;;;;;;;;4917085;28;20033;-75
2021/05/10 08:14:39;;;;;;;2.55;1.60;;;;;;;;;;4939347;28;20098;-74
2021/05/10 08:17:06;;;;;;;2.30;1.75;;;;;;;;;;4920282;28;20130;-76
2021/05/10 08:19:32;;;;;;;4.13;1.75;;;;;;;;;;4928004;28;20601;-75
2021/05/10 08:22:02;;;;;;;3.17;1.52;;;;;;;;;;4914911;28;20055;-75
2021/05/10 08:24:29;;;;;;;2.00;1.60;;;;;;;;;;4915650;28;20159;-75
2021/05/10 08:26:55;;;;;;;2.47;1.65;;;;;;;;;;4917880;28;20079;-76
2021/05/10 08:29:22;;;;;;;2.50;1.58;;;;;;;;;;4936663;28;20098;-75
2021/05/10 08:31:49;;;;;;;3.60;1.40;;;;;;;;;;4911665;28;20546;-76
2021/05/10 08:34:15;;;;;;;2.80;1.60;;;;;;;;;;4936123;28;20059;-75
2021/05/10 08:36:42;;;;;;;2.25;1.50;;;;;;;;;;4916957;28;20067;-76
2021/05/10 08:39:09;;;;;;;2.10;1.55;;;;;;;;;;4915338;28;20067;-75
2021/05/10 08:41:36;;;;;;;2.42;1.60;;;;;;;;;;4922483;28;20052;-76
2021/05/10 08:44:06;;;;;;;3.63;1.80;;;;;;;;;;4927450;28;20129;-76
2021/05/10 08:46:33;;;;;;;3.28;1.80;;;;;;;;;;4932556;28;20048;-75
2021/05/10 08:48:59;;;;;;;2.03;1.55;;;;;;;;;;4914867;28;20063;-75
2021/05/10 08:51:27;;;;;;;2.17;1.58;;;;;;;;;;4925859;28;20545;-75
2021/05/10 08:53:53;;;;;;;2.50;1.58;;;;;;;;;;4933313;28;20079;-75
2021/05/10 08:56:20;;;;;;;3.38;1.65;;;;;;;;;;4923912;28;20055;-75
2021/05/10 08:58:47;;;;;;;2.42;1.60;;;;;;;;;;4925520;28;20071;-76
2021/05/10 09:01:19;;;;;;;2.00;1.58;;;;;;;;;;4924220;28;20063;-75
2021/05/10 09:03:46;;;;;;;2.20;1.65;;;;;;;;;;4919101;28;20056;-77
2021/05/10 09:06:14;;;;;;;2.15;1.55;;;;;;;;;;4923399;28;20067;-75
2021/05/10 09:08:42;;;;;;;3.25;1.60;;;;;;;;;;4922705;28;20098;-75
2021/05/10 09:11:09;;;;;;;3.88;1.65;;;;;;;;;;4912207;28;20063;-73
2021/05/10 09:13:36;;;;;;;3.97;1.83;;;;;;;;;;4925170;28;20075;-75
2021/05/10 09:16:03;;;;;;;2.70;1.58;;;;;;;;;;4912459;28;20551;-75
2021/05/10 09:18:30;;;;;;;2.20;1.50;;;;;;;;;;4914244;28;20068;-75
2021/05/10 09:21:09;;;;;;;3.03;1.50;;;;;;;;;;4912286;28;20139;-75
2021/05/10 09:23:35;;;;;;;3.10;1.67;;;;;;;;;;4913979;28;20066;-73
2021/05/10 09:26:02;;;;;;;2.17;1.58;;;;;;;;;;4917774;28;20048;-74
2021/05/10 09:28:36;;;;;;;2.47;1.45;;;;;;;;;;4921485;28;20082;-76
2021/05/10 09:31:03;;;;;;;3.40;1.50;;;;;;;;;;4922653;28;20055;-75
2021/05/10 09:33:30;;;;;;;4.32;1.77;;;;;;;;;;4937927;28;20165;-76
2021/05/10 09:36:06;;;;;;;2.30;1.75;;;;;;;;;;4918042;28;20063;-75
2021/05/10 09:38:36;;;;;;;3.50;1.52;;;;;;;;;;4930822;28;20047;-74
2021/05/10 09:41:07;;;;;;;2.55;1.95;;;;;;;;;;4934463;28;20061;-73
2021/05/10 09:43:35;;;;;;;3.28;2.00;;;;;;;;;;4938126;28;20071;-74
2021/05/10 09:46:05;;;;;;;4.15;1.70;;;;;;;;;;4916113;28;20127;-75
2021/05/10 09:48:34;;;;;;;2.72;1.90;;;;;;;;;;4930679;28;20119;-75
2021/05/10 09:51:02;;;;;;;5.18;1.73;;;;;;;;;;4929841;28;20075;-74
2021/05/10 09:53:33;;;;;;;3.42;1.75;;;;;;;;;;4940548;28;20059;-74
2021/05/10 09:56:00;;;;;;;2.22;1.70;;;;;;;;;;4918934;28;20060;-73
2021/05/10 09:58:37;;;;;;;2.25;1.63;;;;;;;;;;4923819;28;20071;-74
2021/05/10 10:01:03;;;;;;;3.58;1.83;;;;;;;;;;4917462;28;20127;-74
2021/05/10 10:03:34;;;;;;;2.40;1.73;;;;;;;;;;4930916;28;20075;-75
2021/05/10 10:06:02;;;;;;;2.25;1.48;;;;;;;;;;4926860;28;20075;-74
2021/05/10 10:08:29;;;;;;;2.25;1.80;;;;;;;;;;4927826;28;20115;-74
2021/05/10 10:10:56;;;;;;;2.50;1.77;;;;;;;;;;4924114;28;20059;-74
2021/05/10 10:13:23;;;;;;;3.35;1.80;;;;;;;;;;4925264;28;20059;-75
2021/05/10 10:15:49;;;;;;;2.28;1.70;;;;;;;;;;4926714;28;20071;-75
2021/05/10 10:18:16;;;;;;;3.10;2.00;;;;;;;;;;4923570;28;20483;-74
2021/05/10 10:20:44;;;;;;;2.70;1.65;;;;;;;;;;4943255;28;20522;-74
2021/05/10 10:23:12;;;;;;;2.95;1.90;;;;;;;;;;4920418;28;20115;-74
2021/05/10 10:25:39;;;;;;;2.40;1.70;;;;;;;;;;4925060;28;20067;-74
2021/05/10 10:28:06;;;;;;;2.85;1.63;;;;;;;;;;4916383;28;20060;-75
2021/05/10 10:30:33;;;;;;;3.20;2.00;;;;;;;;;;4933926;28;20086;-76
2021/05/10 10:33:07;;;;;;;2.17;1.67;;;;;;;;;;4936197;28;20731;-76
2021/05/10 10:35:36;;;;;;;5.10;1.95;;;;;;;;;;4917980;28;20068;-76
2021/05/10 10:38:04;;;;;;;3.70;2.00;;;;;;;;;;4917328;28;20115;-76
2021/05/10 10:40:30;;;;;;;4.13;2.90;;;;;;;;;;4920431;28;20059;-77
2021/05/10 10:43:15;;;;;;;4.78;3.20;;;;;;;;;;4916281;28;20063;-76
2021/05/10 10:45:41;;;;;;;4.55;3.20;;;;;;;;;;4936705;28;20067;-77
2021/05/10 10:48:08;;;;;;;6.28;2.90;;;;;;;;;;4917813;28;20126;-76
2021/05/10 10:50:54;;;;;;;4.78;2.70;;;;;;;;;;4921487;28;20067;-75
2021/05/10 10:53:40;;;;;;;3.95;2.55;;;;;;;;;;4930208;28;20536;-75
2021/05/10 10:56:06;;;;;;;3.42;2.60;;;;;;;;;;4924680;28;20134;-76
2021/05/10 10:58:33;;;;;;;3.50;2.45;;;;;;;;;;4929784;28;20131;-75
2021/05/10 11:01:02;;;;;;;3.30;2.40;;;;;;;;;;4921481;28;20075;-75
2021/05/10 11:03:29;;;;;;;3.10;2.22;;;;;;;;;;4924313;28;20087;-76
2021/05/10 11:05:56;;;;;;;3.65;2.42;;;;;;;;;;4927396;28;20129;-76
2021/05/10 11:08:41;;;;;;;4.43;2.53;;;;;;;;;;4920290;28;20040;-76
2021/05/10 11:11:07;;;;;;;3.95;2.20;;;;;;;;;;4943996;28;20047;-77
2021/05/10 11:13:34;;;;;;;2.92;2.22;;;;;;;;;;4923610;28;20139;-76
2021/05/10 11:16:08;;;;;;;3.72;2.25;;;;;;;;;;4936166;28;20064;-76
2021/05/10 11:18:49;;;;;;;2.70;2.00;;;;;;;;;;4925493;28;20110;-76
2021/05/10 11:21:22;;;;;;;2.83;2.35;;;;;;;;;;4924992;28;20050;-75
2021/05/10 11:23:53;;;;;;;3.30;1.92;;;;;;;;;;4937907;28;20063;-76
2021/05/10 11:26:36;;;;;;;2.58;2.20;;;;;;;;;;4921155;28;20125;-76
2021/05/10 11:29:04;;;;;;;3.67;2.40;;;;;;;;;;4913405;28;20135;-76
2021/05/10 11:31:42;;;;;;;3.25;2.10;;;;;;;;;;4930414;28;20511;-75
2021/05/10 11:34:12;;;;;;;4.32;2.17;;;;;;;;;;4927002;28;20070;-76
2021/05/10 11:36:48;;;;;;;3.03;2.35;;;;;;;;;;4922815;28;20121;-76
2021/05/10 11:39:21;;;;;;;3.05;2.13;;;;;;;;;;4924590;28;20694;-75
2021/05/10 11:41:48;;;;;;;3.67;2.10;;;;;;;;;;4917090;28;20499;-76
2021/05/10 11:44:24;;;;;;;2.75;1.92;;;;;;;;;;4932376;28;20104;-75
2021/05/10 11:46:52;;;;;;;3.38;2.08;;;;;;;;;;4917972;28;20067;-76
2021/05/10 11:49:28;;;;;;;2.67;2.10;;;;;;;;;;4932434;28;20079;-76
2021/05/10 11:51:59;;;;;;;2.90;2.00;;;;;;;;;;4918327;28;20141;-75
2021/05/10 11:54:26;;;;;;;3.15;1.95;;;;;;;;;;4937139;28;20096;-76
2021/05/10 11:56:55;;;;;;;3.05;1.80;;;;;;;;;;4919833;28;20090;-75
2021/05/10 11:59:30;;;;;;;3.40;2.30;;;;;;;;;;4924640;28;20063;-75
2021/05/10 12:01:57;;;;;;;2.60;2.00;;;;;;;;;;4925484;28;20028;-75
2021/05/10 12:04:23;;;;;;;2.88;2.08;;;;;;;;;;4919904;28;20569;-75
2021/05/10 12:06:50;;;;;;;3.00;2.00;;;;;;;;;;4920600;28;20080;-76
2021/05/10 12:09:31;;;;;;;2.60;2.03;;;;;;;;;;4916582;28;20071;-76
2021/05/10 12:11:58;;;;;;;;;;;;;;;;;;4932369;28;20038;-76
2021/05/10 12:14:24;;;;;;;3.10;2.00;;;;;;;;;;4918441;28;20021;-76
2021/05/10 12:17:01;;;;;;;2.65;2.05;;;;;;;;;;4920715;28;20170;-76
2021/05/10 12:19:47;;;;;;;2.95;1.90;;;;;;;;;;4934392;28;20060;-76
2021/05/10 12:22:13;;;;;;;3.20;2.00;;;;;;;;;;4919219;28;20059;-76
2021/05/10 12:24:55;;;;;;;3.45;1.90;;;;;;;;;;4925002;28;20577;-76
2021/05/10 12:27:21;;;;;;;;;;;;;;;;;;4929815;28;20277;-76
2021/05/10 12:29:47;;;;;;;2.88;2.20;;;;;;;;;;4913234;28;19959;-76
2021/05/10 12:32:14;;;;;;;3.17;2.10;;;;;;;;;;4916227;28;20064;-76
2021/05/10 12:34:41;;;;;;;2.70;1.90;;;;;;;;;;4923493;28;20129;-76
2021/05/10 12:37:08;;;;;;;4.72;2.38;;;;;;;;;;4917071;28;20106;-77
2021/05/10 12:39:36;;;;;;;2.33;1.80;;;;;;;;;;4942898;28;20104;-76
2021/05/10 12:42:19;;;;;;;3.05;2.00;;;;;;;;;;4921665;28;20535;-76
2021/05/10 12:44:58;;;;;;;2.50;2.03;;;;;;;;;;4924532;28;20070;-76
2021/05/10 12:47:37;;;;;;;2.67;1.85;;;;;;;;;;4943122;28;20075;-76
2021/05/10 12:50:03;;;;;;;3.53;2.00;;;;;;;;;;4926858;28;20149;-76
2021/05/10 12:52:30;;;;;;;2.45;1.80;;;;;;;;;;4925731;28;20023;-76
2021/05/10 12:54:56;;;;;;;2.20;1.67;;;;;;;;;;4917745;28;20122;-76
2021/05/10 12:57:29;;;;;;;3.33;1.75;;;;;;;;;;4933353;28;20071;-76
2021/05/10 12:59:55;;;;;;;3.50;1.98;;;;;;;;;;4931684;28;20102;-76
2021/05/10 13:02:22;;;;;;;2.70;1.70;;;;;;;;;;4932767;28;20949;-76
2021/05/10 13:04:48;;;;;;;2.55;2.08;;;;;;;;;;4912777;28;20072;-76
2021/05/10 13:07:15;;;;;;;2.53;1.88;;;;;;;;;;4914778;28;20075;-76
2021/05/10 13:09:41;;;;;;;2.65;2.10;;;;;;;;;;4929331;28;20127;-76
2021/05/10 13:12:12;;;;;;;2.90;2.10;;;;;;;;;;4922667;28;20558;-77
2021/05/10 13:14:50;;;;;;;2.00;1.60;;;;;;;;;;4935530;28;20468;-77
2021/05/10 13:36:22;;;;;;;2.60;1.88;;;;;;;;;;4917402;28;21092;-76
2021/05/10 13:38:49;;;;;;;3.95;1.83;;;;;;;;;;4924702;28;20056;-75
2021/05/10 13:41:17;;;;;;;3.75;1.70;;;;;;;;;;4936881;28;20035;-76
2021/05/10 13:43:59;;;;;;;2.50;1.85;;;;;;;;;;4921075;28;20035;-75
2021/05/10 13:46:27;;;;;;;3.03;2.03;;;;;;;;;;4936397;28;20454;-75
2021/05/10 13:48:53;;;;;;;3.60;1.90;;;;;;;;;;4925590;28;20058;-76
2021/05/10 13:51:20;;;;;;;2.47;1.63;;;;;;;;;;4917235;28;20503;-76
2021/05/10 13:53:46;;;;;;;2.60;1.83;;;;;;;;;;4917053;28;20139;-76
2021/05/10 13:56:13;;;;;;;3.55;1.85;;;;;;;;;;4929893;28;20035;-77
2021/05/10 13:58:45;;;;;;;2.80;1.70;;;;;;;;;;4935098;28;20148;-76
2021/05/10 14:01:12;;;;;;;4.25;2.00;;;;;;;;;;4917599;28;20181;-76
2021/05/10 14:03:39;;;;;;;2.60;2.00;;;;;;;;;;4931791;28;20185;-75
2021/05/10 14:06:08;;;;;;;2.80;1.77;;;;;;;;;;4915553;28;20114;-77
2021/05/10 14:08:35;;;;;;;2.95;2.00;;;;;;;;;;4934247;28;20078;-77
2021/05/10 14:11:03;;;;;;;2.20;1.70;;;;;;;;;;4921939;28;20064;-77
2021/05/10 14:13:29;;;;;;;2.53;1.80;;;;;;;;;;4937411;28;20072;-76
2021/05/10 14:15:56;;;;;;;3.08;1.70;;;;;;;;;;4928994;28;20771;-77
2021/05/10 14:18:27;;;;;;;3.47;1.75;;;;;;;;;;4934328;28;20501;-76
2021/05/10 14:23:39;;;;;;;2.78;1.88;;;;;;;;;;4915165;28;20111;-76
2021/05/10 14:26:06;;;;;;;4.18;1.80;;;;;;;;;;4930922;28;20146;-75
2021/05/10 14:28:38;;;;;;;3.00;2.03;;;;;;;;;;4939261;28;20063;-76
2021/05/10 14:31:05;;;;;;;3.10;1.83;;;;;;;;;;4931978;28;20534;-77
2021/05/10 14:33:32;;;;;;;2.75;1.70;;;;;;;;;;4928707;28;20119;-76
2021/05/10 14:35:59;;;;;;;3.30;1.90;;;;;;;;;;4927470;28;20055;-76
2021/05/10 14:38:25;;;;;;;3.88;1.80;;;;;;;;;;4931460;28;20456;-76
2021/05/10 14:40:52;;;;;;;3.00;1.88;;;;;;;;;;4938800;28;20071;-75
2021/05/10 14:43:21;;;;;;;2.28;1.80;;;;;;;;;;4925539;28;20102;-76
2021/05/10 14:45:48;;;;;;;2.80;1.80;;;;;;;;;;4937222;28;20059;-75
2021/05/10 14:48:15;;;;;;;2.47;1.50;;;;;;;;;;4924032;28;20071;-76
2021/05/10 14:50:44;;;;;;;2.08;1.50;;;;;;;;;;4927042;28;20055;-76
2021/05/10 14:53:10;;;;;;;2.30;1.80;;;;;;;;;;4915016;28;20115;-76
2021/05/10 14:55:37;;;;;;;2.88;1.90;;;;;;;;;;4922938;28;20059;-75
2021/05/10 14:58:03;;;;;;;2.58;1.60;;;;;;;;;;4932600;28;20051;-75
2021/05/10 15:00:30;;;;;;;2.10;1.60;;;;;;;;;;4923408;28;20043;-76
2021/05/10 15:02:56;;;;;;;3.03;1.67;;;;;;;;;;4934874;28;20066;-75
2021/05/10 15:05:22;;;;;;;2.58;1.63;;;;;;;;;;4913838;28;20135;-76
2021/05/10 15:07:49;;;;;;;4.80;1.70;;;;;;;;;;4931320;28;20067;-76
2021/05/10 15:10:16;;;;;;;3.45;1.95;;;;;;;;;;4930040;28;20039;-76
2021/05/10 15:12:42;;;;;;;2.35;1.50;;;;;;;;;;4915025;28;20031;-76
2021/05/10 15:15:09;;;;;;;2.17;1.50;;;;;;;;;;4912231;28;20051;-76